KSKF/SKF METAR and TAF weather

Enter ICAO airport designator
Station Type Date Time Source
KSKF METAR 2020/03/29 20:56 UTC NOAA

KSKF 292056Z AUTO 12012G21KT 10SM BKN080 26/02 A3005 RMK AO2 SLP172 T02640016 57022 $


Station Type Date Time Source
KSKF Decoded METAR 2020/03/29 20:56 UTC NOAA

Kelly Air Force Base, TX, United States (KSKF) 29-23N 098-35W
Mar 29, 2020 - 04:56 PM EDT / 2020.03.29 2056 UTC
Wind: from the ESE (120 degrees) at 14 MPH (12 KT) gusting to 24 MPH (21 KT):0
Visibility: 10 mile(s):0
Sky conditions: mostly cloudy
Temperature: 79.5 F (26.4 C)
Dew Point: 34.9 F (1.6 C)
Relative Humidity: 19%
Pressure (altimeter): 30.05 in. Hg (1017 hPa)
Pressure tendency: 0.06 inches (2.2 hPa) lower than three hours ago
ob: KSKF 292056Z AUTO 12012G21KT 10SM BKN080 26/02 A3005 RMK AO2 SLP172 T02640016 57022
cycle: 21

Station Type Date Time Source
KSKF TAF 2020/03/29 18:44 UTC NOAA

TAF KSKF 291800Z 2918/3024 08010G15KT 9999 FEW075 QNH3004INS
BECMG 3005/3006 VRB06KT 9999 BKN027 QNH2998INS
BECMG 3017/3018 16015G20KT 9000 -SHRA FEW019 510043 QNH2986INS
BECMG 3020/3021 VRB20G25KT 8000 -TSRA FEW019CB OVC025 QNH2985INS
BECMG 3023/3024 19006KT 9000 -SHRA BKN025 QNH2984INS TX25/2922Z TN17/3012Z

Example: see airport list